createdAt,value
2018-10-19T00:00:54.394Z,9.79
2018-10-19T00:03:27.278Z,9.71
2018-10-19T00:06:02.205Z,9.68
2018-10-19T00:08:32.546Z,9.73
2018-10-19T00:11:02.554Z,9.73
2018-10-19T00:13:32.561Z,9.73
2018-10-19T00:16:02.548Z,9.62
2018-10-19T00:18:32.898Z,9.59
2018-10-19T00:21:02.976Z,9.54
2018-10-19T00:23:35.924Z,9.54
2018-10-19T00:26:05.971Z,9.51
2018-10-19T00:28:35.927Z,9.47
2018-10-19T00:31:05.940Z,9.47
2018-10-19T00:33:36.070Z,9.38
2018-10-19T00:36:06.500Z,9.40
2018-10-19T00:38:37.267Z,9.43
2018-10-19T00:41:07.665Z,9.38
2018-10-19T00:43:37.692Z,9.37
2018-10-19T00:46:07.785Z,9.35
2018-10-19T00:48:37.803Z,9.35
2018-10-19T00:51:08.436Z,9.41
2018-10-19T00:53:38.861Z,9.36
2018-10-19T00:56:08.810Z,9.36
2018-10-19T00:58:38.851Z,9.38
2018-10-19T01:01:10.308Z,9.35
2018-10-19T01:03:40.877Z,9.32
2018-10-19T01:06:10.807Z,9.27
2018-10-19T01:08:40.756Z,9.23
2018-10-19T01:11:11.922Z,9.21
2018-10-19T01:13:41.850Z,9.21
2018-10-19T01:16:27.604Z,9.18
2018-10-19T01:18:57.981Z,9.20
2018-10-19T01:21:28.111Z,9.16
2018-10-19T01:23:58.199Z,9.16
2018-10-19T01:26:33.267Z,9.16
2018-10-19T01:29:03.465Z,9.14
2018-10-19T01:31:33.894Z,9.13
2018-10-19T01:34:04.469Z,9.14
2018-10-19T01:36:40.119Z,9.15
2018-10-19T01:39:11.091Z,9.09
2018-10-19T01:41:45.564Z,9.04
2018-10-19T01:44:16.224Z,8.99
2018-10-19T01:46:48.774Z,8.93
2018-10-19T01:49:20.632Z,8.88
2018-10-19T01:51:51.390Z,8.82
2018-10-19T01:54:21.727Z,8.80
2018-10-19T01:56:52.123Z,8.82
2018-10-19T01:59:22.699Z,8.77
2018-10-19T02:01:54.925Z,8.75
2018-10-19T02:04:25.476Z,8.76
2018-10-19T02:06:56.248Z,8.71
2018-10-19T02:09:36.798Z,8.71
2018-10-19T02:12:07.206Z,8.66
2018-10-19T02:14:38.497Z,8.61
2018-10-19T02:17:08.710Z,8.60
2018-10-19T02:19:39.269Z,8.57
2018-10-19T02:22:09.705Z,8.53
2018-10-19T02:24:41.311Z,8.61
2018-10-19T02:27:11.702Z,8.61
2018-10-19T02:29:42.087Z,8.51
2018-10-19T02:32:12.238Z,8.20
2018-10-19T02:34:42.691Z,8.50
2018-10-19T02:37:13.062Z,8.49
2018-10-19T02:39:44.235Z,8.48
2018-10-19T02:42:14.354Z,8.47
2018-10-19T02:44:44.759Z,8.46
2018-10-19T02:47:15.291Z,8.44
2018-10-19T02:49:46.305Z,8.40
2018-10-19T02:52:17.974Z,8.38
2018-10-19T02:54:49.807Z,8.33
2018-10-19T02:57:21.073Z,8.33
2018-10-19T02:59:51.856Z,8.38
2018-10-19T03:02:21.995Z,8.32
2018-10-19T03:04:52.014Z,8.33
2018-10-19T03:07:22.381Z,8.29
2018-10-19T03:09:53.862Z,8.26
2018-10-19T03:12:24.161Z,8.28
2018-10-19T03:14:54.532Z,8.22
2018-10-19T03:17:25.217Z,8.17
2018-10-19T03:19:55.302Z,8.17
2018-10-19T03:22:28.898Z,8.20
2018-10-19T03:24:59.177Z,8.16
2018-10-19T03:27:29.290Z,8.23
2018-10-19T03:30:00.757Z,8.20
2018-10-19T03:32:30.721Z,8.24
2018-10-19T03:35:00.785Z,8.19
2018-10-19T03:37:31.916Z,8.21
2018-10-19T03:40:02.426Z,8.25
2018-10-19T03:42:32.501Z,8.20
2018-10-19T03:45:02.631Z,8.21
2018-10-19T03:47:32.658Z,8.16
2018-10-19T03:50:02.747Z,8.11
2018-10-19T03:52:33.243Z,8.08
2018-10-19T03:55:28.018Z,8.09
2018-10-19T03:58:00.555Z,8.02
2018-10-19T04:00:30.875Z,7.98
2018-10-19T04:03:00.805Z,8.02
2018-10-19T04:05:30.986Z,7.94
2018-10-19T04:08:01.197Z,7.97
2018-10-19T04:10:32.317Z,7.77
2018-10-19T04:13:02.999Z,7.88
2018-10-19T04:15:33.711Z,7.81
2018-10-19T04:18:03.725Z,7.84
2018-10-19T04:20:33.676Z,7.87
2018-10-19T04:23:08.684Z,7.83
2018-10-19T04:25:49.253Z,7.84
2018-10-19T04:28:19.231Z,7.77
2018-10-19T04:30:49.208Z,7.73
2018-10-19T04:33:22.103Z,7.73
2018-10-19T04:35:52.556Z,7.72
2018-10-19T04:38:22.556Z,7.69
2018-10-19T04:40:52.542Z,7.66
2018-10-19T04:43:22.427Z,7.64
2018-10-19T04:45:52.525Z,7.61
2018-10-19T04:48:23.976Z,7.60
2018-10-19T04:50:54.419Z,7.65
2018-10-19T05:07:04.433Z,7.52
2018-10-19T05:09:34.578Z,7.45
2018-10-19T05:12:06.158Z,7.42
2018-10-19T05:14:36.335Z,7.38
2018-10-19T05:17:06.682Z,7.38
2018-10-19T05:19:36.803Z,7.31
2018-10-19T05:22:07.356Z,7.28
2018-10-19T05:24:37.538Z,7.27
2018-10-19T05:27:07.671Z,7.24
2018-10-19T05:29:42.093Z,7.22
2018-10-19T05:32:12.150Z,7.25
2018-10-19T05:34:44.678Z,7.27
2018-10-19T05:37:14.836Z,7.28
2018-10-19T05:39:44.958Z,7.35
2018-10-19T05:42:14.839Z,7.31
2018-10-19T05:44:51.535Z,7.30
2018-10-19T05:47:32.670Z,7.35
2018-10-19T05:50:03.242Z,7.45
2018-10-19T05:52:46.468Z,7.38
2018-10-19T05:55:16.527Z,7.42
2018-10-19T05:57:46.726Z,7.36
2018-10-19T06:00:18.085Z,7.35
2018-10-19T06:02:48.072Z,7.38
2018-10-19T06:05:17.926Z,7.39
2018-10-19T06:07:49.334Z,7.39
2018-10-19T06:10:19.352Z,7.41
2018-10-19T06:12:49.261Z,7.41
2018-10-19T06:15:19.396Z,7.44
2018-10-19T06:17:49.390Z,7.41
2018-10-19T06:20:19.272Z,7.40
2018-10-19T06:22:50.340Z,7.38
2018-10-19T06:25:20.143Z,7.36
2018-10-19T06:27:50.142Z,7.36
2018-10-19T06:30:20.148Z,7.40
2018-10-19T06:32:50.193Z,7.44
2018-10-19T06:35:20.255Z,7.48
2018-10-19T06:37:50.660Z,7.50
2018-10-19T06:40:20.732Z,7.54
2018-10-19T06:42:50.726Z,7.53
2018-10-19T06:45:20.774Z,7.59
2018-10-19T06:47:50.878Z,7.66
2018-10-19T06:50:20.865Z,7.69
2018-10-19T06:52:51.052Z,7.87
2018-10-19T06:55:21.044Z,7.82
2018-10-19T06:57:51.022Z,7.83
2018-10-19T07:00:21.173Z,7.83
2018-10-19T07:02:51.438Z,7.84
2018-10-19T07:05:21.443Z,7.87
2018-10-19T07:07:51.443Z,7.94
2018-10-19T07:10:21.843Z,8.01
2018-10-19T07:12:51.925Z,8.15
2018-10-19T07:15:21.854Z,8.19
2018-10-19T07:17:51.800Z,8.33
2018-10-19T07:20:21.989Z,8.39
2018-10-19T07:22:52.178Z,8.57
2018-10-19T07:25:22.440Z,8.59
2018-10-19T07:27:53.901Z,8.69
2018-10-19T07:30:24.016Z,8.81
2018-10-19T07:32:54.345Z,8.86
2018-10-19T07:35:25.192Z,8.94
2018-10-19T07:37:55.497Z,9.01
2018-10-19T07:40:26.559Z,9.11
2018-10-19T07:42:56.589Z,9.22
2018-10-19T07:45:26.665Z,9.30
2018-10-19T07:47:56.793Z,9.38
2018-10-19T07:50:26.914Z,9.47
2018-10-19T07:52:58.235Z,9.58
2018-10-19T07:55:28.147Z,9.68
2018-10-19T07:57:58.193Z,9.77
2018-10-19T08:00:28.227Z,9.88
2018-10-19T08:02:58.273Z,9.98
2018-10-19T08:05:28.624Z,10.15
2018-10-19T08:07:58.689Z,10.38
2018-10-19T08:10:28.758Z,10.60
2018-10-19T08:12:59.594Z,10.83
2018-10-19T08:15:29.776Z,11.11
2018-10-19T08:17:59.994Z,11.32
2018-10-19T08:20:30.601Z,11.47
2018-10-19T08:23:43.642Z,11.73
2018-10-19T08:26:14.016Z,11.92
2018-10-19T08:28:44.577Z,12.03
2018-10-19T08:31:14.583Z,12.41
2018-10-19T08:33:44.599Z,12.65
2018-10-19T08:36:15.549Z,12.77
2018-10-19T08:38:45.883Z,12.90
2018-10-19T08:41:26.888Z,13.35
2018-10-19T08:43:57.737Z,14.20
2018-10-19T08:46:32.941Z,15.01
2018-10-19T08:49:04.173Z,15.70
2018-10-19T08:51:34.896Z,16.51
2018-10-19T08:54:06.756Z,17.18
2018-10-19T08:56:36.781Z,17.70
2018-10-19T08:59:07.339Z,17.94
2018-10-19T09:01:37.344Z,17.94
2018-10-19T09:04:07.376Z,18.24
2018-10-19T09:06:37.453Z,18.18
2018-10-19T09:09:10.536Z,17.69
2018-10-19T09:11:41.004Z,17.00
2018-10-19T09:14:22.220Z,16.60
2018-10-19T09:16:52.638Z,16.20
2018-10-19T09:19:26.602Z,15.87
2018-10-19T09:21:56.723Z,15.58
2018-10-19T09:24:34.342Z,15.49
2018-10-19T09:27:05.978Z,15.46
2018-10-19T09:29:36.274Z,15.29
2018-10-19T09:32:06.281Z,15.30
2018-10-19T09:34:36.773Z,15.26
2018-10-19T09:37:08.579Z,15.23
2018-10-19T09:39:39.744Z,15.20
2018-10-19T09:42:10.520Z,15.43
2018-10-19T09:44:41.114Z,15.28
2018-10-19T09:47:11.314Z,15.28
2018-10-19T09:49:41.241Z,15.36
2018-10-19T09:52:11.716Z,15.30
2018-10-19T09:54:41.749Z,15.32
2018-10-19T09:57:12.122Z,15.53
2018-10-19T09:59:42.347Z,15.69
2018-10-19T10:04:37.863Z,15.62
2018-10-19T10:07:08.295Z,15.67
2018-10-19T10:09:39.708Z,15.82
2018-10-19T10:12:10.136Z,15.78
2018-10-19T10:14:42.051Z,15.86
2018-10-19T10:17:12.379Z,15.88
2018-10-19T10:19:43.355Z,15.94
2018-10-19T10:22:13.716Z,15.88
2018-10-19T10:24:44.209Z,15.75
2018-10-19T10:27:14.653Z,15.71
2018-10-19T10:29:44.740Z,15.79
2018-10-19T10:32:14.882Z,15.89
2018-10-19T10:34:44.870Z,15.84
2018-10-19T10:37:15.429Z,15.84
2018-10-19T10:39:46.074Z,16.02
2018-10-19T10:42:16.747Z,16.10
2018-10-19T10:44:47.165Z,16.22
2018-10-19T10:47:17.418Z,16.18
2018-10-19T10:49:47.346Z,16.37
2018-10-19T10:52:17.363Z,16.33
2018-10-19T10:54:47.564Z,16.14
2018-10-19T10:57:17.882Z,16.10
2018-10-19T10:59:47.881Z,16.07
2018-10-19T11:02:17.891Z,16.11
2018-10-19T11:04:48.313Z,16.15
2018-10-19T11:07:18.497Z,16.10
2018-10-19T11:09:49.128Z,16.14
2018-10-19T11:12:19.087Z,16.10
2018-10-19T11:14:49.460Z,16.13
2018-10-19T11:17:19.581Z,16.15
2018-10-19T11:19:51.864Z,16.15
2018-10-19T11:22:21.908Z,16.22
2018-10-19T11:24:51.792Z,16.16
2018-10-19T11:27:21.748Z,16.23
2018-10-19T11:29:51.690Z,16.30
2018-10-19T11:32:21.653Z,16.43
2018-10-19T11:34:51.818Z,16.46
2018-10-19T11:37:21.737Z,16.49
2018-10-19T11:40:03.819Z,16.60
2018-10-19T11:42:35.707Z,16.73
2018-10-19T11:45:06.308Z,16.88
2018-10-19T11:47:37.267Z,16.93
2018-10-19T11:50:07.765Z,16.98
2018-10-19T11:52:37.762Z,16.98
2018-10-19T11:55:08.216Z,17.09
2018-10-19T11:57:39.377Z,17.14
2018-10-19T12:00:10.286Z,17.28
2018-10-19T12:02:40.476Z,17.27
2018-10-19T12:05:10.627Z,17.29
2018-10-19T12:07:40.983Z,17.29
2018-10-19T12:10:12.094Z,17.33
2018-10-19T12:12:42.483Z,17.48
2018-10-19T12:15:13.668Z,17.46
2018-10-19T12:17:45.347Z,17.61
2018-10-19T12:20:17.386Z,17.68
2018-10-19T12:22:47.307Z,17.75
2018-10-19T12:25:17.636Z,17.94
2018-10-19T12:27:47.534Z,18.08
2018-10-19T12:30:17.536Z,18.16
2018-10-19T12:32:47.473Z,18.47
2018-10-19T12:35:17.784Z,18.80
2018-10-19T12:37:47.706Z,19.24
2018-10-19T12:40:17.773Z,19.26
2018-10-19T12:42:47.694Z,19.16
2018-10-19T12:46:37.633Z,18.96
2018-10-19T12:49:07.844Z,18.89
2018-10-19T12:51:37.872Z,18.91
2018-10-19T12:54:08.279Z,18.79
2018-10-19T12:56:38.709Z,18.73
2018-10-19T12:59:09.039Z,18.63
2018-10-19T13:01:39.048Z,18.57
2018-10-19T13:04:09.023Z,18.53
2018-10-19T13:06:40.555Z,18.55
2018-10-19T13:09:12.142Z,18.47
2018-10-19T13:11:42.167Z,18.52
2018-10-19T13:14:12.298Z,18.59
2018-10-19T13:16:42.196Z,18.95
2018-10-19T13:19:12.242Z,18.92
2018-10-19T13:21:42.228Z,18.88
2018-10-19T13:24:12.410Z,18.99
2018-10-19T13:26:42.253Z,18.80
2018-10-19T13:29:12.323Z,18.76
2018-10-19T13:31:42.356Z,18.60
2018-10-19T13:34:13.993Z,18.67
2018-10-19T13:36:44.397Z,18.49
2018-10-19T13:39:15.052Z,18.38
2018-10-19T13:42:04.040Z,18.44
2018-10-19T13:44:35.595Z,18.39
2018-10-19T13:47:06.228Z,18.54
2018-10-19T13:49:37.656Z,18.46
2018-10-19T13:52:07.816Z,18.57
2018-10-19T13:54:37.691Z,18.88
2018-10-19T13:57:07.753Z,19.01
2018-10-19T13:59:38.221Z,19.19
2018-10-19T14:02:09.227Z,19.38
2018-10-19T14:04:40.627Z,19.51
2018-10-19T14:07:10.876Z,19.57
2018-10-19T14:09:40.964Z,19.36
2018-10-19T14:12:10.992Z,19.23
2018-10-19T14:14:41.329Z,19.27
2018-10-19T14:17:11.680Z,19.08
2018-10-19T14:19:48.866Z,18.91
2018-10-19T14:22:19.425Z,18.95
2018-10-19T14:24:50.593Z,18.92
2018-10-19T14:27:20.737Z,18.84
2018-10-19T14:29:51.022Z,18.93
2018-10-19T14:32:20.858Z,19.26
2018-10-19T14:34:50.900Z,19.55
2018-10-19T14:37:21.293Z,19.50
2018-10-19T14:39:51.280Z,19.42
2018-10-19T15:09:47.824Z,18.14
2018-10-19T15:12:17.546Z,18.09
2018-10-19T15:14:47.701Z,17.96
2018-10-19T15:17:17.578Z,18.03
2018-10-19T15:19:47.422Z,17.93
2018-10-19T15:22:17.367Z,17.83
2018-10-19T15:24:47.164Z,17.83
2018-10-19T15:27:17.207Z,17.65
2018-10-19T15:29:48.663Z,17.48
2018-10-19T15:32:18.552Z,17.55
2018-10-19T15:34:48.487Z,17.46
2018-10-19T15:37:18.474Z,17.23
2018-10-19T15:39:48.399Z,17.09
2018-10-19T15:42:18.415Z,17.06
2018-10-19T15:44:48.602Z,17.07
2018-10-19T15:47:18.603Z,16.92
2018-10-19T15:49:48.815Z,16.71
2018-10-19T15:52:18.676Z,16.60
2018-10-19T15:54:48.857Z,16.70
2018-10-19T15:57:18.914Z,16.53
2018-10-19T15:59:48.870Z,16.34
2018-10-19T16:02:18.924Z,16.17
2018-10-19T16:04:49.732Z,16.03
2018-10-19T16:07:20.009Z,15.94
2018-10-19T16:09:50.008Z,15.81
2018-10-19T16:12:21.473Z,15.70
2018-10-19T16:14:51.569Z,15.65
2018-10-19T16:17:21.588Z,15.54
2018-10-19T16:19:51.617Z,15.42
2018-10-19T16:22:21.656Z,15.37
2018-10-19T16:24:51.653Z,15.27
2018-10-19T16:27:21.860Z,15.17
2018-10-19T16:29:51.927Z,15.07
2018-10-19T16:32:21.897Z,14.97
2018-10-19T16:34:51.927Z,14.86
2018-10-19T16:37:21.860Z,14.78
2018-10-19T16:39:51.797Z,14.68
2018-10-19T16:42:23.172Z,14.62
2018-10-19T16:44:53.179Z,14.52
2018-10-19T16:47:23.230Z,14.38
2018-10-19T16:49:53.483Z,14.27
2018-10-19T16:52:23.503Z,14.12
2018-10-19T16:54:53.291Z,13.96
2018-10-19T16:57:23.688Z,13.83
2018-10-19T16:59:53.663Z,13.83
2018-10-19T17:02:23.628Z,13.78
2018-10-19T17:04:57.217Z,13.74
2018-10-19T17:07:29.433Z,13.68
2018-10-19T17:10:00.848Z,13.58
2018-10-19T17:12:33.238Z,13.49
2018-10-19T17:15:03.427Z,13.53
2018-10-19T17:17:33.349Z,13.53
2018-10-19T17:20:08.434Z,13.42
2018-10-19T17:22:39.798Z,13.35
2018-10-19T17:25:13.187Z,13.28
2018-10-19T17:27:45.165Z,13.22
2018-10-19T17:30:18.713Z,13.19
2018-10-19T17:32:49.606Z,13.13
2018-10-19T17:35:21.432Z,13.03
2018-10-19T17:37:51.473Z,12.92
2018-10-19T17:40:21.426Z,12.87
2018-10-19T17:42:51.607Z,12.83
2018-10-19T17:45:25.000Z,12.79
2018-10-19T17:47:59.060Z,12.75
2018-10-19T17:50:31.375Z,12.74
2018-10-19T17:53:15.464Z,12.69
2018-10-19T17:55:45.667Z,12.59
2018-10-19T17:58:15.820Z,12.59
2018-10-19T18:00:45.999Z,12.49
2018-10-19T18:03:16.238Z,12.45
2018-10-19T18:05:59.447Z,12.45
2018-10-19T18:08:29.990Z,12.38
2018-10-19T18:11:01.863Z,12.27
2018-10-19T18:13:31.972Z,12.25
2018-10-19T18:16:03.644Z,12.21
2018-10-19T18:18:33.632Z,12.22
2018-10-19T18:21:03.705Z,12.12
2018-10-19T18:23:33.895Z,12.05
2018-10-19T18:26:04.109Z,12.02
2018-10-19T18:28:34.998Z,12.04
2018-10-19T18:31:05.392Z,11.96
2018-10-19T18:33:35.354Z,11.91
2018-10-19T18:36:05.759Z,11.85
2018-10-19T18:38:36.040Z,11.80
2018-10-19T18:41:07.960Z,11.72
2018-10-19T18:43:38.726Z,11.67
2018-10-19T18:46:11.170Z,11.63
2018-10-19T18:48:41.329Z,11.65
2018-10-19T18:51:12.539Z,11.59
2018-10-19T18:53:43.066Z,11.59
2018-10-19T18:56:15.633Z,11.54
2018-10-19T18:58:46.976Z,11.52
2018-10-19T19:01:20.583Z,11.48
2018-10-19T19:03:51.881Z,11.50
2018-10-19T19:06:22.257Z,11.48
2018-10-19T19:08:52.890Z,11.35
2018-10-19T19:11:24.139Z,11.33
2018-10-19T19:13:55.581Z,11.29
2018-10-19T19:16:30.999Z,11.27
2018-10-19T19:19:01.216Z,11.28
2018-10-19T19:21:31.992Z,11.24
2018-10-19T19:24:08.766Z,11.21
2018-10-19T19:26:39.500Z,11.14
2018-10-19T19:29:09.761Z,11.13
2018-10-19T19:31:45.492Z,11.06
2018-10-19T19:34:25.411Z,11.03
2018-10-19T19:36:59.902Z,11.02
2018-10-19T19:39:30.856Z,11.03
2018-10-19T19:42:06.832Z,10.94
2018-10-19T19:44:36.864Z,10.95
2018-10-19T19:47:07.192Z,10.92
2018-10-19T19:49:39.104Z,10.85
2018-10-19T19:52:09.090Z,10.82
2018-10-19T19:54:39.155Z,10.79
2018-10-19T19:57:09.261Z,10.70
2018-10-19T19:59:39.176Z,10.68
2018-10-19T20:02:09.094Z,10.67
2018-10-19T20:04:39.268Z,10.66
2018-10-19T20:07:09.072Z,10.62
2018-10-19T20:09:38.972Z,10.59
2018-10-19T20:12:09.146Z,10.60
2018-10-19T20:14:39.079Z,10.63
2018-10-19T20:17:09.138Z,10.57
2018-10-19T20:19:39.420Z,10.51
2018-10-19T20:22:09.267Z,10.46
2018-10-19T20:24:39.318Z,10.39
2018-10-19T20:27:09.427Z,10.37
2018-10-19T20:29:39.429Z,10.39
2018-10-19T20:32:09.741Z,10.42
2018-10-19T20:34:39.644Z,10.40
2018-10-19T20:37:09.575Z,10.39
2018-10-19T20:39:40.853Z,10.35
2018-10-19T20:42:11.075Z,10.36
2018-10-19T20:44:41.466Z,10.33
2018-10-19T20:47:12.376Z,10.20
2018-10-19T20:49:43.154Z,10.25
2018-10-19T20:52:13.132Z,10.19
2018-10-19T20:54:42.990Z,10.18
2018-10-19T20:57:15.734Z,10.13
2018-10-19T20:59:45.535Z,10.10
2018-10-19T21:02:15.295Z,10.08
2018-10-19T21:04:45.112Z,10.07
2018-10-19T21:07:15.010Z,10.05
2018-10-19T21:09:44.745Z,9.97
2018-10-19T21:12:14.756Z,9.90
2018-10-19T21:14:45.104Z,9.84
2018-10-19T21:17:14.980Z,9.83
2018-10-19T21:19:46.036Z,9.80
2018-10-19T21:22:15.839Z,9.85
2018-10-19T21:24:45.653Z,9.80
2018-10-19T21:27:15.517Z,9.76
2018-10-19T21:29:45.555Z,9.73
2018-10-19T21:32:15.383Z,9.70
2018-10-19T21:34:45.162Z,9.68
2018-10-19T21:37:15.055Z,9.60
2018-10-19T21:39:44.917Z,9.54
2018-10-19T21:42:14.720Z,9.60
2018-10-19T21:44:44.910Z,9.54
2018-10-19T21:47:14.917Z,9.57
2018-10-19T21:49:44.647Z,9.52
2018-10-19T21:52:14.445Z,9.45
2018-10-19T21:54:44.618Z,9.44
2018-10-19T21:57:14.576Z,9.47
2018-10-19T21:59:44.468Z,9.45
2018-10-19T22:02:14.201Z,9.47
2018-10-19T22:04:43.916Z,9.45
2018-10-19T22:07:13.623Z,9.50
2018-10-19T22:09:43.824Z,9.49
2018-10-19T22:12:13.647Z,9.41
2018-10-19T22:14:43.351Z,9.38
2018-10-19T22:17:13.255Z,9.35
2018-10-19T22:19:43.399Z,9.30
2018-10-19T22:22:13.218Z,9.25
2018-10-19T22:24:43.462Z,9.22
2018-10-19T22:27:13.302Z,9.20
2018-10-19T22:29:43.211Z,9.14
2018-10-19T22:32:14.339Z,9.07
2018-10-19T22:34:44.288Z,9.01
2018-10-19T22:37:14.167Z,8.93
2018-10-19T22:39:44.064Z,8.98
2018-10-19T22:42:13.740Z,8.94
2018-10-19T22:44:43.478Z,8.93
2018-10-19T22:47:13.394Z,8.89
2018-10-19T22:49:43.049Z,8.94
2018-10-19T22:52:12.867Z,8.89
2018-10-19T22:54:42.847Z,8.91
2018-10-19T22:57:12.560Z,8.85
2018-10-19T22:59:43.206Z,8.82
2018-10-19T23:02:14.181Z,8.72
2018-10-19T23:04:57.138Z,8.71
2018-10-19T23:07:27.489Z,8.66
2018-10-19T23:09:58.479Z,8.66
2018-10-19T23:12:39.084Z,8.67
2018-10-19T23:15:10.024Z,8.74
2018-10-19T23:17:40.195Z,8.80
2018-10-19T23:20:10.444Z,8.76
2018-10-19T23:22:40.820Z,8.75
2018-10-19T23:25:10.581Z,8.71
2018-10-19T23:27:40.326Z,8.69
2018-10-19T23:30:10.136Z,8.65
2018-10-19T23:32:39.878Z,8.68
2018-10-19T23:35:10.094Z,8.74
2018-10-19T23:37:39.880Z,8.64
2018-10-19T23:40:13.180Z,8.56
2018-10-19T23:42:45.855Z,8.48
2018-10-19T23:45:17.969Z,8.55
2018-10-19T23:47:47.721Z,8.57
2018-10-19T23:50:17.514Z,8.51
2018-10-19T23:52:47.281Z,8.53
2018-10-19T23:55:17.220Z,8.43
2018-10-19T23:57:47.397Z,8.42
